Time;durP1;ratioP1;P1;durP2;ratioP2;P2;SDS_P1;SDS_P2;PMS_P1;PMS_P2;Temp;Humidity;BMP_temperature;BMP_pressure;BME280_temperature;BME280_humidity;BME280_pressure;Samples;Min_cycle;Max_cycle;Signal;HPM_P1;HPM_P2
2023/05/02 00:02:16;;;;;;;2.25;2.05;;;21.70;70.40;;;;;;5029170;28;20718;-57
2023/05/02 00:04:43;;;;;;;3.03;2.40;;;21.70;70.40;;;;;;5032060;28;20197;-55
2023/05/02 00:07:11;;;;;;;2.67;2.35;;;21.60;70.30;;;;;;5031346;28;20200;-59
2023/05/02 00:09:39;;;;;;;3.08;1.90;;;21.60;70.30;;;;;;5021961;28;20200;-56
2023/05/02 00:12:06;;;;;;;3.15;2.50;;;21.60;70.30;;;;;;5028183;28;20208;-56
2023/05/02 00:14:32;;;;;;;3.13;2.20;;;21.60;70.30;;;;;;5031660;28;20192;-53
2023/05/02 00:16:59;;;;;;;5.35;1.88;;;21.60;70.30;;;;;;5021958;28;20283;-57
2023/05/02 00:19:26;;;;;;;2.08;1.90;;;21.60;70.30;;;;;;5029451;28;20193;-57
2023/05/02 00:21:52;;;;;;;2.05;1.83;;;21.60;70.40;;;;;;5026630;28;20227;-58
2023/05/02 00:24:19;;;;;;;4.00;1.65;;;21.60;70.40;;;;;;5026469;28;20200;-58
2023/05/02 00:26:47;;;;;;;2.58;2.20;;;21.60;71.20;;;;;;5034928;28;20188;-57
2023/05/02 00:29:14;;;;;;;3.22;2.05;;;21.50;70.30;;;;;;5027060;28;20604;-58
2023/05/02 00:31:41;;;;;;;2.80;2.25;;;21.50;70.30;;;;;;5021869;28;20251;-57
2023/05/02 00:34:07;;;;;;;2.85;2.22;;;21.60;70.40;;;;;;5029630;28;20207;-59
2023/05/02 00:36:34;;;;;;;3.13;2.58;;;21.50;70.30;;;;;;5030885;28;20196;-60
2023/05/02 00:39:01;;;;;;;1.90;1.67;;;21.60;70.40;;;;;;5026643;28;20196;-58
2023/05/02 00:41:27;;;;;;;3.13;2.00;;;21.50;70.30;;;;;;5035636;28;20199;-59
2023/05/02 00:43:55;;;;;;;5.13;1.95;;;21.50;70.30;;;;;;5027281;28;20195;-58
2023/05/02 00:46:22;;;;;;;1.88;1.77;;;21.50;70.40;;;;;;5022108;28;20204;-59
2023/05/02 00:48:49;;;;;;;2.28;1.55;;;21.50;70.30;;;;;;5025284;28;20192;-59
2023/05/02 00:51:17;;;;;;;2.25;2.05;;;21.50;70.40;;;;;;5026709;28;20227;-52
2023/05/02 00:53:43;;;;;;;3.05;1.92;;;21.50;70.40;;;;;;5024168;28;20763;-57
2023/05/02 00:56:10;;;;;;;1.80;1.58;;;21.50;70.40;;;;;;5032046;28;20204;-58
2023/05/02 00:58:38;;;;;;;3.83;2.08;;;21.50;70.30;;;;;;5026873;28;20204;-59
2023/05/02 01:01:22;;;;;;;2.78;1.95;;;21.50;70.40;;;;;;5018683;28;20371;-57
2023/05/02 01:04:00;;;;;;;2.95;2.03;;;21.40;70.20;;;;;;5027488;28;20212;-55
2023/05/02 01:06:36;;;;;;;2.13;1.92;;;21.40;70.20;;;;;;5029682;28;20207;-58
2023/05/02 01:09:16;;;;;;;1.83;1.50;;;21.40;70.30;;;;;;5030963;28;20252;-59
2023/05/02 01:11:48;;;;;;;2.60;2.35;;;21.40;70.20;;;;;;5031720;28;20203;-56
2023/05/02 01:14:15;;;;;;;3.45;2.10;;;21.40;70.30;;;;;;5025928;28;20207;-58
2023/05/02 01:16:45;;;;;;;5.25;2.40;;;21.40;70.30;;;;;;5017966;28;20193;-56
2023/05/02 01:19:22;;;;;;;2.33;1.90;;;21.40;71.00;;;;;;5030785;28;20223;-57
2023/05/02 01:21:49;;;;;;;1.95;1.60;;;21.40;70.30;;;;;;5025793;28;20835;-59
2023/05/02 01:24:25;;;;;;;2.05;1.85;;;21.40;70.30;;;;;;5020030;28;20279;-57
2023/05/02 01:27:04;;;;;;;2.83;2.00;;;21.40;70.30;;;;;;5027125;28;20206;-52
2023/05/02 01:29:33;;;;;;;2.78;1.60;;;21.40;70.30;;;;;;5024974;28;20200;-56
2023/05/02 01:32:01;;;;;;;2.22;1.48;;;21.40;70.30;;;;;;5024656;28;20197;-55
2023/05/02 01:34:29;;;;;;;2.08;1.75;;;21.30;70.20;;;;;;5030365;28;20227;-54
2023/05/02 01:36:59;;;;;;;3.35;2.45;;;21.30;70.30;;;;;;5024827;28;20624;-60
2023/05/02 01:39:26;;;;;;;2.22;2.03;;;21.40;70.30;;;;;;5024933;28;20299;-55
2023/05/02 01:41:56;;;;;;;2.33;1.90;;;21.30;70.20;;;;;;5030993;28;20253;-52
2023/05/02 01:44:24;;;;;;;1.73;1.63;;;21.30;70.20;;;;;;5023853;28;20242;-56
2023/05/02 01:46:54;;;;;;;2.05;1.85;;;21.40;70.30;;;;;;5021559;28;20192;-59
2023/05/02 01:49:23;;;;;;;2.58;1.90;;;21.30;70.10;;;;;;5028886;28;20200;-57
2023/05/02 01:51:51;;;;;;;2.97;1.70;;;21.30;70.20;;;;;;5028592;28;20287;-60
2023/05/02 01:54:21;;;;;;;2.28;1.85;;;21.30;70.10;;;;;;5025652;28;20593;-59
2023/05/02 01:56:48;;;;;;;1.60;1.50;;;21.30;70.20;;;;;;5031386;28;20725;-56
2023/05/02 01:59:19;;;;;;;2.40;2.20;;;21.30;70.20;;;;;;5021853;28;20204;-56
2023/05/02 02:01:46;;;;;;;2.45;2.25;;;21.30;70.20;;;;;;5026419;28;20196;-56
2023/05/02 02:04:16;;;;;;;3.53;1.90;;;21.30;70.20;;;;;;5026898;28;20307;-57
2023/05/02 02:06:48;;;;;;;3.25;1.80;;;21.30;70.20;;;;;;5028407;28;20208;-57
2023/05/02 02:09:15;;;;;;;2.00;1.80;;;21.30;70.20;;;;;;5033884;28;20202;-57
2023/05/02 02:11:46;;;;;;;2.00;1.42;;;21.30;70.20;;;;;;5029124;28;20596;-58
2023/05/02 02:14:19;;;;;;;1.60;1.50;;;21.30;70.20;;;;;;5029603;28;20208;-57
2023/05/02 02:16:46;;;;;;;2.17;1.70;;;21.20;70.10;;;;;;5024858;28;20739;-57
2023/05/02 02:19:15;;;;;;;3.08;1.90;;;21.20;70.20;;;;;;5031986;28;20196;-58
2023/05/02 02:21:43;;;;;;;2.90;1.77;;;21.20;70.10;;;;;;5027658;28;20446;-57
2023/05/02 02:24:11;;;;;;;1.98;1.50;;;21.20;70.30;;;;;;5025193;28;20622;-59
2023/05/02 02:26:38;;;;;;;1.90;1.65;;;21.20;70.20;;;;;;5030776;28;20212;-57
2023/05/02 02:29:04;;;;;;;2.22;1.52;;;21.20;70.20;;;;;;5029169;28;20653;-59
2023/05/02 02:31:32;;;;;;;2.17;1.98;;;21.20;70.20;;;;;;5027618;28;20274;-56
2023/05/02 02:33:59;;;;;;;3.10;1.80;;;21.20;70.20;;;;;;5028687;28;20196;-53
2023/05/02 02:36:34;;;;;;;1.42;1.30;;;21.20;70.30;;;;;;5027100;28;20656;-53
2023/05/02 02:39:12;;;;;;;1.70;1.60;;;21.20;70.20;;;;;;5024150;28;20196;-55
2023/05/02 02:41:42;;;;;;;2.55;1.95;;;21.20;70.20;;;;;;5026583;28;20623;-57
2023/05/02 02:44:20;;;;;;;2.65;2.20;;;21.10;70.10;;;;;;5033160;28;20227;-55
2023/05/02 02:46:51;;;;;;;1.70;1.60;;;21.20;70.20;;;;;;5030538;28;20232;-56
2023/05/02 02:49:30;;;;;;;2.10;1.73;;;21.10;70.20;;;;;;5031940;28;20212;-51
2023/05/02 02:52:06;;;;;;;1.95;1.75;;;21.10;70.10;;;;;;5032531;28;20196;-56
2023/05/02 02:54:38;;;;;;;2.42;2.22;;;21.10;70.10;;;;;;5035673;28;20199;-56
2023/05/02 02:57:14;;;;;;;2.05;1.80;;;21.10;70.20;;;;;;5038259;28;20204;-59
2023/05/02 02:59:49;;;;;;;2.30;1.67;;;21.10;70.90;;;;;;5030885;28;20257;-58
2023/05/02 03:02:19;;;;;;;1.67;1.50;;;21.10;70.20;;;;;;5026050;28;20664;-55
2023/05/02 03:04:48;;;;;;;2.25;2.05;;;21.10;70.20;;;;;;5032776;28;20284;-55
2023/05/02 03:07:16;;;;;;;2.70;1.70;;;21.10;70.10;;;;;;5020673;28;20258;-58
2023/05/02 03:09:43;;;;;;;2.03;1.67;;;21.10;70.20;;;;;;5032163;28;20212;-57
2023/05/02 03:12:11;;;;;;;1.98;1.70;;;21.10;70.20;;;;;;5034601;28;20200;-59
2023/05/02 03:14:38;;;;;;;1.90;1.55;;;21.10;70.20;;;;;;5029083;28;20196;-56
2023/05/02 03:17:07;;;;;;;1.98;1.33;;;21.10;70.20;;;;;;5021345;28;21141;-58
2023/05/02 03:19:33;;;;;;;2.28;1.70;;;21.10;70.20;;;;;;5031031;28;20188;-57
2023/05/02 03:22:00;;;;;;;2.03;1.77;;;21.10;70.20;;;;;;5021078;28;20212;-59
2023/05/02 03:24:29;;;;;;;1.92;1.70;;;21.00;70.10;;;;;;5030829;28;20231;-57
2023/05/02 03:26:57;;;;;;;2.42;1.70;;;21.10;70.20;;;;;;5034719;28;20580;-56
2023/05/02 03:29:24;;;;;;;1.90;1.40;;;21.10;70.20;;;;;;5024340;28;20287;-60
2023/05/02 03:31:51;;;;;;;1.88;1.70;;;21.10;70.20;;;;;;5027800;28;20698;-58
2023/05/02 03:34:20;;;;;;;1.88;1.73;;;21.00;70.10;;;;;;5026261;28;20208;-56
2023/05/02 03:36:47;;;;;;;2.65;1.88;;;21.00;70.10;;;;;;5028808;28;20196;-55
2023/05/02 03:39:15;;;;;;;1.50;1.40;;;21.00;70.10;;;;;;5030162;28;20200;-57
2023/05/02 03:41:43;;;;;;;2.50;1.67;;;21.00;70.20;;;;;;5027778;28;20258;-57
2023/05/02 03:44:10;;;;;;;1.85;1.60;;;21.00;70.10;;;;;;5031277;28;20220;-58
2023/05/02 03:46:36;;;;;;;2.20;1.60;;;21.00;70.90;;;;;;5025324;28;20265;-57
2023/05/02 03:49:03;;;;;;;2.65;1.65;;;21.00;70.10;;;;;;5030448;28;20687;-58
2023/05/02 03:51:30;;;;;;;1.77;1.65;;;21.00;70.10;;;;;;5030541;28;20200;-57
2023/05/02 03:53:57;;;;;;;1.70;1.42;;;21.00;70.10;;;;;;5025520;28;20230;-59
2023/05/02 03:56:24;;;;;;;1.30;1.20;;;21.00;70.10;;;;;;5037969;28;20296;-57
2023/05/02 03:58:52;;;;;;;2.10;1.70;;;21.00;70.10;;;;;;5024948;28;20663;-58
2023/05/02 04:01:19;;;;;;;2.15;1.95;;;21.00;70.20;;;;;;5023671;28;20208;-58
2023/05/02 04:03:46;;;;;;;1.77;1.60;;;21.00;70.00;;;;;;5019099;28;20269;-57
2023/05/02 04:06:12;;;;;;;2.67;1.75;;;20.90;70.00;;;;;;5028179;28;20691;-58
2023/05/02 04:08:39;;;;;;;2.40;1.95;;;21.00;70.10;;;;;;5029142;28;20192;-58
2023/05/02 04:11:06;;;;;;;2.70;1.92;;;21.00;70.10;;;;;;5020424;28;20197;-58
2023/05/02 04:13:33;;;;;;;1.60;1.50;;;21.00;70.10;;;;;;5028723;28;20192;-52
2023/05/02 04:16:00;;;;;;;1.70;1.60;;;20.90;70.00;;;;;;5027215;28;20196;-58
2023/05/02 04:18:27;;;;;;;1.55;1.45;;;20.90;70.10;;;;;;5027694;28;20289;-55
2023/05/02 04:20:54;;;;;;;2.10;1.90;;;20.90;70.00;;;;;;5026658;28;20196;-56
2023/05/02 04:23:20;;;;;;;1.80;1.70;;;20.90;70.10;;;;;;5029584;28;20584;-56
2023/05/02 04:25:52;;;;;;;1.55;1.45;;;20.90;70.00;;;;;;5031150;28;20326;-56
2023/05/02 04:28:19;;;;;;;1.77;1.58;;;20.90;70.00;;;;;;5031235;28;20283;-54
2023/05/02 04:30:46;;;;;;;1.83;1.73;;;20.90;70.10;;;;;;5035000;28;20250;-58
2023/05/02 04:33:14;;;;;;;1.63;1.50;;;20.90;70.80;;;;;;5033035;28;20596;-57
2023/05/02 04:35:41;;;;;;;2.72;1.52;;;20.90;70.00;;;;;;5031034;28;20192;-54
2023/05/02 04:38:07;;;;;;;1.60;1.40;;;20.90;70.00;;;;;;5029543;28;20197;-58
2023/05/02 04:40:34;;;;;;;1.80;1.70;;;20.90;70.00;;;;;;5029903;28;20192;-56
2023/05/02 04:43:01;;;;;;;1.80;1.70;;;20.90;70.10;;;;;;5023873;28;20196;-53
2023/05/02 04:45:28;;;;;;;1.58;1.42;;;20.90;70.00;;;;;;5029212;28;20200;-54
2023/05/02 04:47:55;;;;;;;2.03;1.30;;;20.90;70.00;;;;;;5030550;28;20664;-54
2023/05/02 04:50:23;;;;;;;1.67;1.58;;;20.90;70.10;;;;;;5027556;28;20608;-55
2023/05/02 04:52:49;;;;;;;1.90;1.60;;;20.90;70.00;;;;;;5030975;28;20208;-56
2023/05/02 04:55:16;;;;;;;1.88;1.70;;;20.90;70.00;;;;;;5029015;28;20196;-58
2023/05/02 04:57:43;;;;;;;1.90;1.70;;;20.90;70.10;;;;;;5028563;28;20189;-55
2023/05/02 05:00:10;;;;;;;1.90;1.60;;;20.80;70.00;;;;;;5026897;28;20192;-56
2023/05/02 05:02:37;;;;;;;1.85;1.55;;;20.90;70.00;;;;;;5036108;28;20603;-56
2023/05/02 05:05:04;;;;;;;1.60;1.50;;;20.90;70.10;;;;;;5029079;28;20223;-57
2023/05/02 05:07:33;;;;;;;2.25;1.65;;;20.80;70.10;;;;;;5022455;28;20199;-58
2023/05/02 05:09:59;;;;;;;2.30;1.63;;;20.80;69.90;;;;;;5027954;28;20644;-57
2023/05/02 05:12:26;;;;;;;1.88;1.52;;;20.80;70.00;;;;;;5029228;28;20247;-59
2023/05/02 05:14:53;;;;;;;1.50;1.38;;;20.80;70.10;;;;;;5026935;28;20196;-56
2023/05/02 05:17:19;;;;;;;2.80;1.40;;;20.80;69.90;;;;;;5020672;28;20200;-57
2023/05/02 05:19:46;;;;;;;1.50;1.40;;;20.80;70.00;;;;;;5032890;28;20275;-57
2023/05/02 05:22:14;;;;;;;1.90;1.70;;;20.80;70.00;;;;;;5028399;28;20226;-55
2023/05/02 05:24:42;;;;;;;1.70;1.60;;;20.80;70.10;;;;;;5030748;28;20216;-56
2023/05/02 05:27:08;;;;;;;1.60;1.40;;;20.90;70.00;;;;;;5027560;28;20212;-54
2023/05/02 05:29:35;;;;;;;1.67;1.40;;;20.90;70.00;;;;;;5029423;28;20252;-60
2023/05/02 05:32:02;;;;;;;1.55;1.40;;;20.90;70.00;;;;;;5028044;28;20204;-55
2023/05/02 05:34:28;;;;;;;1.63;1.50;;;21.00;70.10;;;;;;5034150;28;20660;-57
2023/05/02 05:36:55;;;;;;;1.60;1.40;;;20.90;70.00;;;;;;5030341;28;20307;-57
2023/05/02 05:39:23;;;;;;;1.63;1.52;;;21.00;70.10;;;;;;5026659;28;20191;-57
2023/05/02 05:41:51;;;;;;;2.28;1.63;;;20.90;69.90;;;;;;5029179;28;20200;-59
2023/05/02 05:44:20;;;;;;;1.63;1.40;;;21.00;70.00;;;;;;5027150;28;20224;-58
2023/05/02 05:46:47;;;;;;;1.55;1.35;;;21.00;70.00;;;;;;5024539;28;20196;-57
2023/05/02 05:49:15;;;;;;;2.40;1.70;;;21.00;70.00;;;;;;5027824;28;20202;-57
2023/05/02 05:51:42;;;;;;;2.08;1.88;;;21.00;70.00;;;;;;5032021;28;20192;-56
2023/05/02 05:54:09;;;;;;;1.95;1.50;;;21.00;69.90;;;;;;5027413;28;20208;-60
2023/05/02 05:56:35;;;;;;;1.48;1.38;;;21.00;69.90;;;;;;5025048;28;20226;-56
2023/05/02 05:59:04;;;;;;;1.67;1.55;;;21.00;69.90;;;;;;5026208;28;20216;-57
2023/05/02 06:01:31;;;;;;;1.60;1.50;;;21.00;69.90;;;;;;5029268;28;20199;-59
2023/05/02 06:03:57;;;;;;;1.60;1.50;;;21.00;69.90;;;;;;5030637;28;20224;-58
2023/05/02 06:06:24;;;;;;;1.33;1.15;;;21.00;69.80;;;;;;5019637;28;20319;-60
2023/05/02 06:08:51;;;;;;;1.70;1.60;;;21.00;69.80;;;;;;5020979;28;20204;-58
2023/05/02 06:11:17;;;;;;;1.77;1.20;;;21.10;69.80;;;;;;5018196;28;20604;-58
2023/05/02 06:13:44;;;;;;;1.45;1.27;;;21.10;69.80;;;;;;5032925;28;20703;-57
2023/05/02 06:16:12;;;;;;;2.55;1.50;;;21.10;69.80;;;;;;5033018;28;20199;-58
2023/05/02 06:18:39;;;;;;;1.70;1.60;;;21.10;70.30;;;;;;5032140;28;20265;-59
2023/05/02 06:21:06;;;;;;;1.45;1.35;;;21.20;71.10;;;;;;5033616;28;20254;-57
2023/05/02 06:23:33;;;;;;;2.28;1.25;;;21.20;70.70;;;;;;5036222;28;20220;-57
2023/05/02 06:26:00;;;;;;;1.30;1.10;;;21.20;70.50;;;;;;5030829;28;20564;-58
2023/05/02 06:28:27;;;;;;;1.33;1.23;;;21.20;70.40;;;;;;5032604;28;20242;-57
2023/05/02 06:30:58;;;;;;;1.15;1.00;;;21.20;70.40;;;;;;5030606;28;20200;-56
2023/05/02 06:33:26;;;;;;;1.65;1.55;;;21.30;70.40;;;;;;5032986;28;20284;-58
2023/05/02 06:35:53;;;;;;;1.52;1.20;;;21.30;70.40;;;;;;5030071;28;20656;-57
2023/05/02 06:38:19;;;;;;;1.30;1.20;;;21.30;70.40;;;;;;5031907;28;20199;-56
2023/05/02 06:40:46;;;;;;;1.83;1.40;;;21.30;70.20;;;;;;5030806;28;20723;-55
2023/05/02 06:43:13;;;;;;;1.70;1.40;;;21.30;70.30;;;;;;5032108;28;20208;-57
2023/05/02 06:45:41;;;;;;;2.13;1.33;;;21.30;70.20;;;;;;5031720;28;20478;-55
2023/05/02 06:48:07;;;;;;;1.42;1.08;;;21.30;70.20;;;;;;5031484;28;20278;-55
2023/05/02 06:50:36;;;;;;;2.28;1.40;;;21.30;70.20;;;;;;5031340;28;20192;-58
2023/05/02 06:53:04;;;;;;;1.30;1.20;;;21.30;70.20;;;;;;5030812;28;20196;-55
2023/05/02 06:55:30;;;;;;;1.77;1.38;;;21.40;70.30;;;;;;5027327;28;20568;-56
2023/05/02 06:57:57;;;;;;;1.58;1.45;;;21.40;70.20;;;;;;5029810;28;20652;-57
2023/05/02 07:00:24;;;;;;;1.58;1.48;;;21.30;70.10;;;;;;5033309;28;20612;-54
2023/05/02 07:02:51;;;;;;;2.00;1.20;;;21.30;70.10;;;;;;5033418;28;20200;-55
2023/05/02 07:05:17;;;;;;;1.67;1.40;;;21.30;70.10;;;;;;5028071;28;20246;-59
2023/05/02 07:07:45;;;;;;;1.50;1.40;;;21.30;70.00;;;;;;5025612;28;20192;-58
2023/05/02 07:10:12;;;;;;;1.40;1.10;;;21.40;70.10;;;;;;5028163;28;20200;-60
2023/05/02 07:12:39;;;;;;;1.33;1.00;;;21.30;70.00;;;;;;5025932;28;20829;-57
2023/05/02 07:15:07;;;;;;;1.50;1.40;;;21.40;70.10;;;;;;5031808;28;20975;-56
2023/05/02 07:17:33;;;;;;;1.80;1.70;;;21.40;70.10;;;;;;5029194;28;20250;-58
2023/05/02 07:20:00;;;;;;;1.50;1.30;;;21.40;70.50;;;;;;5034202;28;20188;-58
2023/05/02 07:22:27;;;;;;;1.73;1.60;;;21.40;70.50;;;;;;5027703;28;20229;-53
2023/05/02 07:25:00;;;;;;;1.45;1.33;;;21.40;70.30;;;;;;5030483;28;20847;-57
2023/05/02 07:27:27;;;;;;;1.52;1.40;;;21.40;70.30;;;;;;5033563;28;20200;-54
2023/05/02 07:29:54;;;;;;;1.75;1.65;;;21.40;71.20;;;;;;5028242;28;20206;-58
2023/05/02 07:32:21;;;;;;;1.67;1.58;;;21.40;70.30;;;;;;5023305;28;20211;-57
2023/05/02 07:34:48;;;;;;;1.35;1.08;;;21.40;70.30;;;;;;5038262;28;20295;-56
2023/05/02 07:37:15;;;;;;;1.60;1.45;;;21.40;70.20;;;;;;5032351;28;20211;-58
2023/05/02 07:39:41;;;;;;;1.35;1.25;;;21.40;70.20;;;;;;5030364;28;20196;-60
2023/05/02 07:42:09;;;;;;;1.30;1.20;;;21.40;70.30;;;;;;5021283;28;20195;-57
2023/05/02 07:44:36;;;;;;;1.70;1.50;;;21.50;70.30;;;;;;5023880;28;20680;-60
2023/05/02 07:47:03;;;;;;;1.65;1.45;;;21.50;70.30;;;;;;5026175;28;20197;-53
2023/05/02 07:49:30;;;;;;;1.83;1.40;;;21.50;70.10;;;;;;5024093;28;20204;-59
2023/05/02 07:51:57;;;;;;;1.60;1.50;;;21.50;70.10;;;;;;5028891;28;20287;-57
2023/05/02 07:54:25;;;;;;;1.30;1.10;;;21.50;70.10;;;;;;5027248;28;20211;-59
2023/05/02 07:56:51;;;;;;;1.63;1.30;;;21.60;70.10;;;;;;5023741;28;20627;-59
2023/05/02 07:59:19;;;;;;;1.52;1.40;;;21.60;70.10;;;;;;5026482;28;20533;-59
2023/05/02 08:01:46;;;;;;;1.25;1.15;;;21.60;70.00;;;;;;5019457;28;20204;-59
2023/05/02 08:04:13;;;;;;;1.10;1.00;;;21.60;70.00;;;;;;5018928;28;20611;-59
2023/05/02 08:06:40;;;;;;;1.13;1.02;;;21.60;70.00;;;;;;5017553;28;20204;-58
2023/05/02 08:09:08;;;;;;;2.22;1.42;;;21.60;69.90;;;;;;5023459;28;20203;-59
2023/05/02 08:11:34;;;;;;;2.45;1.55;;;21.60;70.00;;;;;;5024361;28;20207;-56
2023/05/02 08:14:01;;;;;;;1.50;1.20;;;21.60;69.90;;;;;;5028818;28;20188;-54
2023/05/02 08:16:29;;;;;;;5.03;1.23;;;21.60;71.10;;;;;;5023742;28;20204;-64
2023/05/02 08:18:56;;;;;;;1.30;1.20;;;21.60;70.90;;;;;;5025210;28;20266;-56
2023/05/02 08:21:23;;;;;;;1.97;1.20;;;21.60;71.00;;;;;;5028995;28;20446;-57
2023/05/02 08:23:50;;;;;;;2.23;1.83;;;21.60;71.00;;;;;;5023269;28;20474;-58
2023/05/02 08:26:17;;;;;;;2.85;1.23;;;21.60;70.90;;;;;;5027181;28;20847;-53
2023/05/02 08:28:44;;;;;;;1.27;1.10;;;21.70;71.00;;;;;;5031484;28;20724;-55
2023/05/02 08:31:11;;;;;;;2.72;1.63;;;21.60;70.90;;;;;;5028088;28;20196;-55
2023/05/02 08:33:39;;;;;;;1.60;1.30;;;21.70;70.90;;;;;;5029338;28;20200;-54
2023/05/02 08:36:11;;;;;;;1.52;1.30;;;21.70;70.90;;;;;;5030790;28;20459;-55
2023/05/02 08:38:37;;;;;;;4.13;1.40;;;21.70;70.70;;;;;;5024411;28;20652;-53
2023/05/02 08:41:10;;;;;;;1.50;1.20;;;21.70;70.70;;;;;;5029695;28;20524;-56
2023/05/02 08:43:38;;;;;;;1.10;1.00;;;21.70;70.70;;;;;;5036007;28;20843;-52
2023/05/02 08:46:07;;;;;;;1.17;1.07;;;21.70;70.70;;;;;;5027575;28;20800;-55
2023/05/02 08:48:35;;;;;;;1.70;1.10;;;21.70;70.70;;;;;;5024122;28;20874;-51
2023/05/02 08:51:05;;;;;;;2.85;1.27;;;21.70;70.60;;;;;;5024954;28;20188;-56
2023/05/02 08:53:34;;;;;;;2.33;1.45;;;21.70;70.60;;;;;;5026893;28;20263;-56
2023/05/02 08:56:01;;;;;;;1.40;1.07;;;21.70;70.60;;;;;;5028957;28;20204;-56
2023/05/02 08:58:27;;;;;;;1.80;1.20;;;21.70;70.60;;;;;;5030883;28;20463;-53
2023/05/02 09:00:57;;;;;;;1.42;1.10;;;21.70;70.50;;;;;;5033105;28;20462;-58
2023/05/02 09:03:29;;;;;;;1.20;1.00;;;21.70;70.60;;;;;;5031025;28;20200;-55
2023/05/02 09:06:05;;;;;;;1.95;1.38;;;21.70;70.60;;;;;;5029227;28;20596;-55
2023/05/02 09:08:32;;;;;;;1.40;1.20;;;21.70;70.50;;;;;;5026598;28;20279;-53
2023/05/02 09:10:59;;;;;;;1.40;1.23;;;21.70;70.50;;;;;;5030135;28;20591;-53
2023/05/02 09:13:33;;;;;;;2.67;1.40;;;21.70;70.50;;;;;;5023080;28;20653;-57
2023/05/02 09:16:02;;;;;;;1.47;1.10;;;21.70;70.40;;;;;;5020331;28;20489;-59
2023/05/02 09:18:30;;;;;;;4.32;1.10;;;21.70;70.50;;;;;;5025714;28;20535;-59
2023/05/02 09:20:58;;;;;;;1.40;1.20;;;21.80;70.60;;;;;;5024968;28;20200;-64
2023/05/02 09:23:37;;;;;;;1.90;1.17;;;21.80;70.90;;;;;;5025172;28;20509;-64
2023/05/02 09:26:11;;;;;;;2.38;1.25;;;21.80;70.70;;;;;;5025835;28;20478;-66
2023/05/02 09:28:40;;;;;;;9.57;1.80;;;21.70;69.50;;;;;;5017577;28;20200;-61
2023/05/02 09:31:08;;;;;;;8.13;1.45;;;21.80;70.40;;;;;;5016160;28;20200;-61
2023/05/02 09:33:35;;;;;;;4.23;1.30;;;21.80;70.10;;;;;;5019539;28;20686;-63
2023/05/02 09:36:02;;;;;;;3.53;1.23;;;21.80;70.30;;;;;;5019850;28;20465;-61
2023/05/02 09:38:29;;;;;;;5.40;1.80;;;21.80;70.00;;;;;;5010626;28;20609;-62
2023/05/02 09:40:57;;;;;;;7.15;1.60;;;21.80;69.80;;;;;;5021570;28;21195;-59
2023/05/02 09:43:24;;;;;;;5.47;1.90;;;21.80;69.90;;;;;;5018859;28;20214;-63
2023/05/02 09:45:58;;;;;;;2.13;1.13;;;21.70;69.80;;;;;;5009135;28;20224;-61
2023/05/02 09:48:26;;;;;;;8.77;1.23;;;21.80;69.90;;;;;;5019872;28;20462;-61
2023/05/02 09:50:53;;;;;;;1.30;1.20;;;21.80;69.90;;;;;;5021080;28;20467;-59
2023/05/02 09:53:20;;;;;;;1.70;1.60;;;21.80;69.80;;;;;;5014999;28;20196;-61
2023/05/02 09:55:47;;;;;;;5.00;1.48;;;21.80;69.80;;;;;;5020184;28;20218;-62
2023/05/02 09:58:24;;;;;;;3.80;1.50;;;21.80;70.00;;;;;;5017689;28;20207;-60
2023/05/02 10:00:52;;;;;;;1.67;1.20;;;21.90;69.90;;;;;;5009345;28;20203;-60
2023/05/02 10:03:19;;;;;;;1.90;1.08;;;21.90;70.00;;;;;;5010556;28;21613;-61
2023/05/02 10:05:47;;;;;;;2.63;1.50;;;21.90;69.90;;;;;;5015155;28;20223;-59
2023/05/02 10:08:16;;;;;;;1.20;1.00;;;21.90;70.00;;;;;;5014791;28;20200;-53
2023/05/02 10:10:47;;;;;;;1.40;1.27;;;22.00;70.30;;;;;;5014497;28;20468;-55
2023/05/02 10:13:16;;;;;;;8.13;1.45;;;22.00;71.10;;;;;;5023330;28;20198;-58
2023/05/02 10:15:45;;;;;;;4.63;1.40;;;22.00;70.30;;;;;;5018813;28;20274;-54
2023/05/02 10:18:14;;;;;;;1.97;1.00;;;22.00;70.40;;;;;;5027067;28;20475;-53
2023/05/02 10:20:47;;;;;;;2.00;1.27;;;22.10;70.50;;;;;;5025852;28;20847;-52
2023/05/02 10:23:15;;;;;;;2.63;1.20;;;22.10;70.60;;;;;;5025963;28;21066;-58
2023/05/02 10:25:42;;;;;;;1.40;1.10;;;22.10;70.60;;;;;;5027292;28;20532;-59
2023/05/02 10:28:10;;;;;;;1.53;1.23;;;22.20;70.70;;;;;;5027829;28;20458;-60
2023/05/02 10:30:39;;;;;;;1.43;1.13;;;22.20;70.70;;;;;;5024731;28;20486;-60
2023/05/02 10:33:07;;;;;;;1.90;1.00;;;22.20;70.60;;;;;;5024042;28;20531;-58
2023/05/02 10:35:36;;;;;;;1.50;1.40;;;22.20;70.60;;;;;;5026971;28;20451;-61
2023/05/02 10:38:03;;;;;;;1.77;1.30;;;22.20;70.70;;;;;;5024457;28;20593;-55
2023/05/02 10:40:30;;;;;;;2.90;1.10;;;22.30;70.80;;;;;;5022332;28;20205;-59
2023/05/02 10:42:57;;;;;;;1.40;1.10;;;22.30;70.70;;;;;;5015570;28;20915;-59
2023/05/02 10:45:32;;;;;;;1.30;1.20;;;22.30;70.70;;;;;;5021006;28;20487;-55
2023/05/02 10:48:17;;;;;;;1.20;1.10;;;22.30;70.70;;;;;;5027385;28;20453;-58
2023/05/02 10:50:48;;;;;;;2.27;1.20;;;22.40;70.70;;;;;;5020757;28;20512;-63
2023/05/02 10:53:25;;;;;;;2.00;1.10;;;22.40;70.70;;;;;;5018788;28;20457;-58
2023/05/02 10:56:15;;;;;;;1.10;1.00;;;22.40;70.70;;;;;;5017171;28;20478;-57
2023/05/02 10:58:43;;;;;;;1.60;1.10;;;22.40;70.60;;;;;;5015222;28;20493;-59
2023/05/02 11:01:36;;;;;;;1.40;1.10;;;22.40;70.60;;;;;;5024407;28;20505;-59
2023/05/02 11:04:06;;;;;;;2.53;1.20;;;22.50;70.60;;;;;;5032266;28;20478;-53
2023/05/02 11:06:34;;;;;;;4.83;1.03;;;22.50;70.70;;;;;;5030177;28;20478;-58
2023/05/02 11:09:35;;;;;;;2.20;1.17;;;22.50;70.70;;;;;;5032450;28;20452;-58
2023/05/02 11:12:03;;;;;;;1.40;1.03;;;22.50;70.60;;;;;;5032150;28;20555;-60
2023/05/02 11:14:47;;;;;;;1.87;1.07;;;22.50;70.60;;;;;;5030129;28;20958;-56
2023/05/02 11:17:14;;;;;;;2.10;1.03;;;22.60;70.60;;;;;;5029238;28;20486;-58
2023/05/02 11:20:26;;;;;;;1.20;1.10;;;22.60;70.70;;;;;;5028303;28;20467;-58
2023/05/02 11:22:55;;;;;;;1.40;1.20;;;22.60;70.50;;;;;;5027894;28;20463;-59
2023/05/02 11:25:39;;;;;;;1.20;1.10;;;22.70;70.60;;;;;;5028560;28;20478;-57
2023/05/02 11:28:08;;;;;;;1.27;1.00;;;22.70;70.50;;;;;;5030325;28;20466;-60
2023/05/02 11:30:40;;;;;;;1.20;1.00;;;22.70;70.50;;;;;;5028709;28;20894;-60
2023/05/02 11:33:18;;;;;;;1.43;1.20;;;22.70;70.50;;;;;;5032896;28;20459;-57
2023/05/02 11:35:47;;;;;;;1.10;0.87;;;22.80;70.60;;;;;;5032574;28;20498;-59
2023/05/02 11:38:17;;;;;;;1.07;0.97;;;22.80;70.50;;;;;;5028251;28;20459;-64
2023/05/02 11:40:54;;;;;;;1.30;1.10;;;22.80;70.40;;;;;;5029720;28;20458;-62
2023/05/02 11:43:23;;;;;;;1.60;1.13;;;22.80;70.30;;;;;;5026933;28;20497;-64
2023/05/02 11:45:50;;;;;;;1.40;1.10;;;22.80;70.30;;;;;;5020470;28;20561;-63
2023/05/02 11:48:19;;;;;;;4.40;1.20;;;22.90;70.40;;;;;;5024967;28;20458;-66
2023/05/02 11:50:47;;;;;;;1.13;0.97;;;22.90;70.40;;;;;;5029526;28;20482;-63
2023/05/02 11:53:16;;;;;;;1.43;0.93;;;22.90;70.30;;;;;;5029762;28;20457;-60
2023/05/02 11:55:47;;;;;;;1.10;0.90;;;22.90;70.40;;;;;;5031703;28;20546;-66
2023/05/02 11:58:15;;;;;;;1.20;1.07;;;23.00;70.40;;;;;;5020385;28;20975;-61
2023/05/02 12:00:45;;;;;;;1.40;1.00;;;23.00;70.30;;;;;;5023294;28;20521;-59
2023/05/02 12:03:23;;;;;;;1.23;0.90;;;23.00;70.40;;;;;;5027701;28;20472;-62
2023/05/02 12:05:51;;;;;;;1.10;0.90;;;23.00;70.20;;;;;;5031701;28;20849;-55
2023/05/02 12:08:25;;;;;;;2.70;1.00;;;23.00;70.20;;;;;;5032558;28;20530;-55
2023/05/02 12:10:53;;;;;;;1.00;0.90;;;23.00;70.30;;;;;;5021479;28;20985;-62
2023/05/02 12:13:21;;;;;;;1.40;1.17;;;23.00;70.20;;;;;;5029550;28;20451;-64
2023/05/02 12:15:49;;;;;;;1.50;1.20;;;23.10;70.20;;;;;;5029990;28;20463;-61
2023/05/02 12:18:18;;;;;;;1.10;0.90;;;23.10;70.20;;;;;;5033233;28;20462;-61
2023/05/02 12:20:45;;;;;;;1.43;0.90;;;23.10;70.20;;;;;;5029642;28;20450;-60
2023/05/02 12:23:12;;;;;;;1.30;1.00;;;23.10;70.20;;;;;;5017604;28;20482;-57
2023/05/02 12:25:42;;;;;;;1.20;1.10;;;23.10;70.20;;;;;;5023755;28;21031;-58
2023/05/02 12:28:09;;;;;;;1.30;0.90;;;23.10;70.10;;;;;;5026747;28;20474;-57
2023/05/02 12:30:38;;;;;;;1.40;0.90;;;23.10;70.10;;;;;;5023025;28;20851;-57
2023/05/02 12:33:06;;;;;;;1.17;0.90;;;23.10;70.00;;;;;;5026198;28;20979;-57
2023/05/02 12:35:33;;;;;;;1.10;0.83;;;23.10;70.10;;;;;;5025131;28;20545;-63
2023/05/02 12:38:14;;;;;;;2.33;1.03;;;23.10;69.90;;;;;;5026520;28;20535;-59
2023/05/02 12:40:49;;;;;;;1.03;0.80;;;23.10;69.90;;;;;;5027983;28;20490;-63
2023/05/02 12:43:16;;;;;;;1.80;1.30;;;23.20;70.10;;;;;;5025177;28;20466;-61
2023/05/02 12:45:43;;;;;;;3.80;1.80;;;23.10;66.20;;;;;;5029149;28;20474;-61
2023/05/02 12:48:20;;;;;;;4.70;1.80;;;22.90;62.80;;;;;;5027436;28;20465;-61
2023/05/02 12:50:47;;;;;;;2.37;1.87;;;22.70;59.20;;;;;;5020456;28;20463;-62
2023/05/02 12:53:14;;;;;;;4.93;2.77;;;22.60;57.40;;;;;;5019778;28;20470;-61
2023/05/02 12:55:41;;;;;;;4.33;2.37;;;22.50;56.70;;;;;;5020224;28;20556;-62
2023/05/02 12:58:10;;;;;;;3.30;1.93;;;22.40;54.90;;;;;;5021164;28;20474;-61